sensor_id;sensor_type;location;lat;lon;timestamp;P1;durP1;ratioP1;P2;durP2;ratioP2
51654;SDS011;37732;53.106;7.030;2023-02-01T00:02:25;27.90;;;8.18;;
51654;SDS011;37732;53.106;7.030;2023-02-01T00:04:51;21.42;;;6.93;;
51654;SDS011;37732;53.106;7.030;2023-02-01T00:07:16;16.73;;;7.35;;
51654;SDS011;37732;53.106;7.030;2023-02-01T00:09:42;22.05;;;7.60;;
51654;SDS011;37732;53.106;7.030;2023-02-01T00:12:08;24.88;;;8.27;;
51654;SDS011;37732;53.106;7.030;2023-02-01T00:14:33;23.13;;;8.20;;
51654;SDS011;37732;53.106;7.030;2023-02-01T00:19:33;23.23;;;8.07;;
51654;SDS011;37732;53.106;7.030;2023-02-01T00:21:59;21.17;;;7.80;;
51654;SDS011;37732;53.106;7.030;2023-02-01T00:24:27;25.63;;;7.32;;
51654;SDS011;37732;53.106;7.030;2023-02-01T00:26:53;18.92;;;7.55;;
51654;SDS011;37732;53.106;7.030;2023-02-01T00:29:19;24.52;;;8.27;;
51654;SDS011;37732;53.106;7.030;2023-02-01T00:31:53;27.83;;;8.43;;
51654;SDS011;37732;53.106;7.030;2023-02-01T00:34:19;20.48;;;7.55;;
51654;SDS011;37732;53.106;7.030;2023-02-01T00:36:46;26.10;;;8.63;;
51654;SDS011;37732;53.106;7.030;2023-02-01T00:39:14;23.10;;;7.53;;
51654;SDS011;37732;53.106;7.030;2023-02-01T00:41:41;25.98;;;7.70;;
51654;SDS011;37732;53.106;7.030;2023-02-01T00:44:09;21.17;;;7.90;;
51654;SDS011;37732;53.106;7.030;2023-02-01T00:46:34;23.80;;;7.78;;
51654;SDS011;37732;53.106;7.030;2023-02-01T00:49:00;27.63;;;7.72;;
51654;SDS011;37732;53.106;7.030;2023-02-01T00:51:27;22.33;;;8.52;;
51654;SDS011;37732;53.106;7.030;2023-02-01T00:53:54;23.60;;;9.15;;
51654;SDS011;37732;53.106;7.030;2023-02-01T00:56:21;18.85;;;7.57;;
51654;SDS011;37732;53.106;7.030;2023-02-01T00:58:47;29.48;;;8.35;;
51654;SDS011;37732;53.106;7.030;2023-02-01T01:01:14;31.88;;;8.27;;
51654;SDS011;37732;53.106;7.030;2023-02-01T01:03:43;17.73;;;7.25;;
51654;SDS011;37732;53.106;7.030;2023-02-01T01:06:15;20.88;;;8.27;;
51654;SDS011;37732;53.106;7.030;2023-02-01T01:08:42;22.48;;;7.47;;
51654;SDS011;37732;53.106;7.030;2023-02-01T01:11:16;22.42;;;7.18;;
51654;SDS011;37732;53.106;7.030;2023-02-01T01:13:45;22.10;;;8.02;;
51654;SDS011;37732;53.106;7.030;2023-02-01T01:16:12;21.50;;;7.38;;
51654;SDS011;37732;53.106;7.030;2023-02-01T01:18:38;25.77;;;8.10;;
51654;SDS011;37732;53.106;7.030;2023-02-01T01:21:05;20.77;;;6.88;;
51654;SDS011;37732;53.106;7.030;2023-02-01T01:23:34;22.33;;;7.28;;
51654;SDS011;37732;53.106;7.030;2023-02-01T01:26:04;19.08;;;6.57;;
51654;SDS011;37732;53.106;7.030;2023-02-01T01:28:33;27.05;;;8.45;;
51654;SDS011;37732;53.106;7.030;2023-02-01T01:30:59;16.35;;;6.80;;
51654;SDS011;37732;53.106;7.030;2023-02-01T01:33:25;21.67;;;8.40;;
51654;SDS011;37732;53.106;7.030;2023-02-01T01:35:50;19.83;;;7.38;;
51654;SDS011;37732;53.106;7.030;2023-02-01T01:38:16;14.70;;;5.47;;
51654;SDS011;37732;53.106;7.030;2023-02-01T01:40:48;26.13;;;8.43;;
51654;SDS011;37732;53.106;7.030;2023-02-01T01:43:17;23.45;;;7.05;;
51654;SDS011;37732;53.106;7.030;2023-02-01T01:45:50;25.58;;;7.28;;
51654;SDS011;37732;53.106;7.030;2023-02-01T01:48:28;19.55;;;7.57;;
51654;SDS011;37732;53.106;7.030;2023-02-01T01:51:00;18.15;;;7.15;;
51654;SDS011;37732;53.106;7.030;2023-02-01T01:53:35;16.38;;;7.15;;
51654;SDS011;37732;53.106;7.030;2023-02-01T01:56:31;20.55;;;7.22;;
51654;SDS011;37732;53.106;7.030;2023-02-01T01:58:59;19.25;;;7.72;;
51654;SDS011;37732;53.106;7.030;2023-02-01T02:05:06;23.70;;;7.18;;
51654;SDS011;37732;53.106;7.030;2023-02-01T02:07:35;18.67;;;7.28;;
51654;SDS011;37732;53.106;7.030;2023-02-01T02:10:04;23.45;;;8.02;;
51654;SDS011;37732;53.106;7.030;2023-02-01T02:12:37;22.38;;;8.60;;
51654;SDS011;37732;53.106;7.030;2023-02-01T02:15:05;20.90;;;7.25;;
51654;SDS011;37732;53.106;7.030;2023-02-01T02:20:39;24.58;;;7.88;;
51654;SDS011;37732;53.106;7.030;2023-02-01T02:23:37;23.08;;;7.30;;
51654;SDS011;37732;53.106;7.030;2023-02-01T02:35:27;21.73;;;6.95;;
51654;SDS011;37732;53.106;7.030;2023-02-01T02:40:33;18.73;;;7.82;;
51654;SDS011;37732;53.106;7.030;2023-02-01T02:43:24;24.02;;;8.18;;
51654;SDS011;37732;53.106;7.030;2023-02-01T02:49:22;23.63;;;7.20;;
51654;SDS011;37732;53.106;7.030;2023-02-01T02:52:01;21.38;;;7.68;;
51654;SDS011;37732;53.106;7.030;2023-02-01T02:54:49;20.60;;;7.65;;
51654;SDS011;37732;53.106;7.030;2023-02-01T03:00:10;23.25;;;7.18;;
51654;SDS011;37732;53.106;7.030;2023-02-01T03:02:56;15.98;;;6.68;;
51654;SDS011;37732;53.106;7.030;2023-02-01T03:05:42;21.27;;;8.27;;
51654;SDS011;37732;53.106;7.030;2023-02-01T03:16:00;25.00;;;7.20;;
51654;SDS011;37732;53.106;7.030;2023-02-01T03:18:42;26.70;;;7.90;;
51654;SDS011;37732;53.106;7.030;2023-02-01T03:24:00;23.27;;;8.00;;
51654;SDS011;37732;53.106;7.030;2023-02-01T03:26:30;20.50;;;7.03;;
51654;SDS011;37732;53.106;7.030;2023-02-01T03:29:00;23.30;;;7.95;;
51654;SDS011;37732;53.106;7.030;2023-02-01T03:31:30;23.13;;;7.38;;
51654;SDS011;37732;53.106;7.030;2023-02-01T03:33:57;19.30;;;7.80;;
51654;SDS011;37732;53.106;7.030;2023-02-01T03:36:30;23.20;;;7.10;;
51654;SDS011;37732;53.106;7.030;2023-02-01T03:41:52;18.10;;;6.95;;
51654;SDS011;37732;53.106;7.030;2023-02-01T03:49:50;21.10;;;7.15;;
51654;SDS011;37732;53.106;7.030;2023-02-01T03:52:27;21.20;;;7.28;;
51654;SDS011;37732;53.106;7.030;2023-02-01T03:54:55;23.17;;;7.22;;
51654;SDS011;37732;53.106;7.030;2023-02-01T03:57:26;22.10;;;7.90;;
51654;SDS011;37732;53.106;7.030;2023-02-01T04:00:04;20.73;;;8.02;;
51654;SDS011;37732;53.106;7.030;2023-02-01T04:02:35;26.58;;;7.90;;
51654;SDS011;37732;53.106;7.030;2023-02-01T04:05:00;18.67;;;7.35;;
51654;SDS011;37732;53.106;7.030;2023-02-01T04:07:26;22.58;;;8.15;;
51654;SDS011;37732;53.106;7.030;2023-02-01T04:09:51;20.63;;;7.65;;
51654;SDS011;37732;53.106;7.030;2023-02-01T04:12:17;26.73;;;7.97;;
51654;SDS011;37732;53.106;7.030;2023-02-01T04:14:43;24.23;;;7.15;;
51654;SDS011;37732;53.106;7.030;2023-02-01T04:17:09;20.05;;;8.05;;
51654;SDS011;37732;53.106;7.030;2023-02-01T04:19:34;26.00;;;7.82;;
51654;SDS011;37732;53.106;7.030;2023-02-01T04:22:00;23.40;;;7.07;;
51654;SDS011;37732;53.106;7.030;2023-02-01T04:24:25;22.38;;;9.10;;
51654;SDS011;37732;53.106;7.030;2023-02-01T04:26:51;26.13;;;7.78;;
51654;SDS011;37732;53.106;7.030;2023-02-01T04:29:17;21.42;;;7.63;;
51654;SDS011;37732;53.106;7.030;2023-02-01T04:31:42;19.98;;;7.78;;
51654;SDS011;37732;53.106;7.030;2023-02-01T04:34:08;17.65;;;7.18;;
51654;SDS011;37732;53.106;7.030;2023-02-01T04:36:34;23.67;;;7.93;;
51654;SDS011;37732;53.106;7.030;2023-02-01T04:38:59;23.75;;;7.78;;
51654;SDS011;37732;53.106;7.030;2023-02-01T04:41:25;18.45;;;7.68;;
51654;SDS011;37732;53.106;7.030;2023-02-01T04:43:50;23.85;;;7.93;;
51654;SDS011;37732;53.106;7.030;2023-02-01T04:46:17;21.20;;;7.65;;
51654;SDS011;37732;53.106;7.030;2023-02-01T04:48:43;23.10;;;8.38;;
51654;SDS011;37732;53.106;7.030;2023-02-01T04:51:09;19.35;;;7.38;;
51654;SDS011;37732;53.106;7.030;2023-02-01T04:53:35;22.25;;;6.95;;
51654;SDS011;37732;53.106;7.030;2023-02-01T04:56:01;19.90;;;6.65;;
51654;SDS011;37732;53.106;7.030;2023-02-01T04:58:27;22.52;;;7.15;;
51654;SDS011;37732;53.106;7.030;2023-02-01T05:00:53;23.58;;;8.07;;
51654;SDS011;37732;53.106;7.030;2023-02-01T05:03:18;17.98;;;7.78;;
51654;SDS011;37732;53.106;7.030;2023-02-01T05:05:44;27.25;;;8.18;;
51654;SDS011;37732;53.106;7.030;2023-02-01T05:08:12;22.88;;;7.10;;
51654;SDS011;37732;53.106;7.030;2023-02-01T05:10:37;20.15;;;6.90;;
51654;SDS011;37732;53.106;7.030;2023-02-01T05:13:03;20.52;;;7.03;;
51654;SDS011;37732;53.106;7.030;2023-02-01T05:15:47;20.73;;;7.38;;
51654;SDS011;37732;53.106;7.030;2023-02-01T05:18:13;20.45;;;6.93;;
51654;SDS011;37732;53.106;7.030;2023-02-01T05:20:38;21.50;;;7.88;;
51654;SDS011;37732;53.106;7.030;2023-02-01T05:23:04;20.13;;;7.75;;
51654;SDS011;37732;53.106;7.030;2023-02-01T05:25:30;21.60;;;7.35;;
51654;SDS011;37732;53.106;7.030;2023-02-01T05:27:56;22.70;;;8.35;;
51654;SDS011;37732;53.106;7.030;2023-02-01T05:30:21;22.05;;;7.20;;
51654;SDS011;37732;53.106;7.030;2023-02-01T05:32:50;19.65;;;8.40;;
51654;SDS011;37732;53.106;7.030;2023-02-01T05:35:17;24.02;;;8.75;;
51654;SDS011;37732;53.106;7.030;2023-02-01T05:37:42;22.77;;;7.13;;
51654;SDS011;37732;53.106;7.030;2023-02-01T05:40:08;22.15;;;8.45;;
51654;SDS011;37732;53.106;7.030;2023-02-01T05:42:34;18.70;;;7.55;;
51654;SDS011;37732;53.106;7.030;2023-02-01T05:45:00;24.05;;;7.32;;
51654;SDS011;37732;53.106;7.030;2023-02-01T05:47:26;18.40;;;7.13;;
51654;SDS011;37732;53.106;7.030;2023-02-01T05:49:51;24.70;;;7.82;;
51654;SDS011;37732;53.106;7.030;2023-02-01T05:52:17;20.58;;;7.35;;
51654;SDS011;37732;53.106;7.030;2023-02-01T05:54:44;21.65;;;7.40;;
51654;SDS011;37732;53.106;7.030;2023-02-01T05:57:12;21.83;;;8.10;;
51654;SDS011;37732;53.106;7.030;2023-02-01T05:59:38;25.85;;;8.30;;
51654;SDS011;37732;53.106;7.030;2023-02-01T06:02:09;21.33;;;7.93;;
51654;SDS011;37732;53.106;7.030;2023-02-01T06:04:36;21.30;;;7.97;;
51654;SDS011;37732;53.106;7.030;2023-02-01T06:07:02;18.92;;;8.60;;
51654;SDS011;37732;53.106;7.030;2023-02-01T06:09:27;20.70;;;7.45;;
51654;SDS011;37732;53.106;7.030;2023-02-01T06:11:53;19.30;;;7.15;;
51654;SDS011;37732;53.106;7.030;2023-02-01T06:14:19;18.58;;;6.80;;
51654;SDS011;37732;53.106;7.030;2023-02-01T06:16:45;19.55;;;6.68;;
51654;SDS011;37732;53.106;7.030;2023-02-01T06:19:12;24.48;;;7.30;;
51654;SDS011;37732;53.106;7.030;2023-02-01T06:21:38;21.40;;;8.00;;
51654;SDS011;37732;53.106;7.030;2023-02-01T06:24:03;19.55;;;7.55;;
51654;SDS011;37732;53.106;7.030;2023-02-01T06:26:29;24.63;;;7.25;;
51654;SDS011;37732;53.106;7.030;2023-02-01T06:28:55;19.33;;;7.25;;
51654;SDS011;37732;53.106;7.030;2023-02-01T06:31:21;22.70;;;6.53;;
51654;SDS011;37732;53.106;7.030;2023-02-01T06:33:48;14.68;;;5.70;;
51654;SDS011;37732;53.106;7.030;2023-02-01T06:36:14;19.33;;;6.65;;
51654;SDS011;37732;53.106;7.030;2023-02-01T06:38:41;24.27;;;7.13;;
51654;SDS011;37732;53.106;7.030;2023-02-01T06:41:06;18.02;;;6.63;;
51654;SDS011;37732;53.106;7.030;2023-02-01T06:43:33;16.75;;;6.20;;
51654;SDS011;37732;53.106;7.030;2023-02-01T06:46:00;15.65;;;6.80;;
51654;SDS011;37732;53.106;7.030;2023-02-01T06:48:27;20.75;;;6.63;;
51654;SDS011;37732;53.106;7.030;2023-02-01T06:50:52;16.83;;;6.20;;
51654;SDS011;37732;53.106;7.030;2023-02-01T06:53:18;18.98;;;6.30;;
51654;SDS011;37732;53.106;7.030;2023-02-01T06:55:53;18.38;;;6.93;;
51654;SDS011;37732;53.106;7.030;2023-02-01T06:58:20;18.52;;;6.93;;
51654;SDS011;37732;53.106;7.030;2023-02-01T07:00:46;19.88;;;7.35;;
51654;SDS011;37732;53.106;7.030;2023-02-01T07:03:12;23.35;;;6.95;;
51654;SDS011;37732;53.106;7.030;2023-02-01T07:05:38;20.88;;;6.88;;
51654;SDS011;37732;53.106;7.030;2023-02-01T07:08:03;21.23;;;7.20;;
51654;SDS011;37732;53.106;7.030;2023-02-01T07:10:29;20.85;;;6.50;;
51654;SDS011;37732;53.106;7.030;2023-02-01T07:12:57;21.52;;;6.88;;
51654;SDS011;37732;53.106;7.030;2023-02-01T07:15:23;16.25;;;6.10;;
51654;SDS011;37732;53.106;7.030;2023-02-01T07:17:49;21.67;;;7.55;;
51654;SDS011;37732;53.106;7.030;2023-02-01T07:20:15;24.70;;;8.35;;
51654;SDS011;37732;53.106;7.030;2023-02-01T07:22:41;24.30;;;7.03;;
51654;SDS011;37732;53.106;7.030;2023-02-01T07:25:07;19.13;;;7.88;;
51654;SDS011;37732;53.106;7.030;2023-02-01T07:27:35;27.08;;;7.97;;
51654;SDS011;37732;53.106;7.030;2023-02-01T07:30:02;23.40;;;6.30;;
51654;SDS011;37732;53.106;7.030;2023-02-01T07:32:29;19.73;;;7.43;;
51654;SDS011;37732;53.106;7.030;2023-02-01T07:34:55;20.08;;;6.53;;
51654;SDS011;37732;53.106;7.030;2023-02-01T07:37:21;20.02;;;6.68;;
51654;SDS011;37732;53.106;7.030;2023-02-01T07:39:46;21.45;;;6.40;;
51654;SDS011;37732;53.106;7.030;2023-02-01T07:42:12;19.05;;;6.65;;
51654;SDS011;37732;53.106;7.030;2023-02-01T07:44:38;24.85;;;7.15;;
51654;SDS011;37732;53.106;7.030;2023-02-01T07:47:03;24.05;;;7.43;;
51654;SDS011;37732;53.106;7.030;2023-02-01T07:49:29;26.58;;;8.00;;
51654;SDS011;37732;53.106;7.030;2023-02-01T07:51:55;21.92;;;7.82;;
51654;SDS011;37732;53.106;7.030;2023-02-01T07:54:20;16.05;;;7.00;;
51654;SDS011;37732;53.106;7.030;2023-02-01T07:56:46;16.27;;;6.15;;
51654;SDS011;37732;53.106;7.030;2023-02-01T07:59:12;21.48;;;7.50;;
51654;SDS011;37732;53.106;7.030;2023-02-01T08:01:37;23.30;;;7.93;;
51654;SDS011;37732;53.106;7.030;2023-02-01T08:04:03;16.75;;;6.90;;
51654;SDS011;37732;53.106;7.030;2023-02-01T08:06:30;18.23;;;7.43;;
51654;SDS011;37732;53.106;7.030;2023-02-01T08:08:57;20.95;;;7.82;;
51654;SDS011;37732;53.106;7.030;2023-02-01T08:11:23;20.27;;;7.68;;
51654;SDS011;37732;53.106;7.030;2023-02-01T08:13:50;32.45;;;7.90;;
51654;SDS011;37732;53.106;7.030;2023-02-01T08:16:17;21.67;;;7.65;;
51654;SDS011;37732;53.106;7.030;2023-02-01T08:18:44;22.55;;;7.75;;
51654;SDS011;37732;53.106;7.030;2023-02-01T08:21:11;21.65;;;7.20;;
51654;SDS011;37732;53.106;7.030;2023-02-01T08:23:39;26.15;;;7.43;;
51654;SDS011;37732;53.106;7.030;2023-02-01T08:28:35;26.50;;;7.82;;
51654;SDS011;37732;53.106;7.030;2023-02-01T08:31:04;22.08;;;8.98;;
51654;SDS011;37732;53.106;7.030;2023-02-01T08:33:32;22.25;;;7.25;;
51654;SDS011;37732;53.106;7.030;2023-02-01T08:35:59;19.42;;;7.70;;
51654;SDS011;37732;53.106;7.030;2023-02-01T08:38:26;20.85;;;7.22;;
51654;SDS011;37732;53.106;7.030;2023-02-01T08:40:51;18.73;;;7.95;;
51654;SDS011;37732;53.106;7.030;2023-02-01T08:43:18;17.63;;;6.63;;
51654;SDS011;37732;53.106;7.030;2023-02-01T08:45:44;19.52;;;7.72;;
51654;SDS011;37732;53.106;7.030;2023-02-01T08:48:09;27.95;;;7.78;;
51654;SDS011;37732;53.106;7.030;2023-02-01T08:50:35;20.77;;;7.72;;
51654;SDS011;37732;53.106;7.030;2023-02-01T08:53:01;20.55;;;6.80;;
51654;SDS011;37732;53.106;7.030;2023-02-01T08:55:26;17.15;;;7.15;;
51654;SDS011;37732;53.106;7.030;2023-02-01T08:57:52;20.27;;;7.07;;
51654;SDS011;37732;53.106;7.030;2023-02-01T09:00:18;20.90;;;7.40;;
51654;SDS011;37732;53.106;7.030;2023-02-01T09:02:44;22.35;;;6.75;;
51654;SDS011;37732;53.106;7.030;2023-02-01T09:05:10;18.33;;;7.15;;
51654;SDS011;37732;53.106;7.030;2023-02-01T09:07:36;26.70;;;7.78;;
51654;SDS011;37732;53.106;7.030;2023-02-01T09:10:02;22.15;;;8.05;;
51654;SDS011;37732;53.106;7.030;2023-02-01T09:12:29;25.10;;;8.50;;
51654;SDS011;37732;53.106;7.030;2023-02-01T09:14:56;18.98;;;6.68;;
51654;SDS011;37732;53.106;7.030;2023-02-01T09:17:24;19.08;;;7.00;;
51654;SDS011;37732;53.106;7.030;2023-02-01T09:19:53;17.67;;;6.80;;
51654;SDS011;37732;53.106;7.030;2023-02-01T09:22:19;20.48;;;7.60;;
51654;SDS011;37732;53.106;7.030;2023-02-01T09:24:45;21.55;;;7.07;;
51654;SDS011;37732;53.106;7.030;2023-02-01T09:27:11;18.42;;;7.22;;
51654;SDS011;37732;53.106;7.030;2023-02-01T09:29:36;15.68;;;6.18;;
51654;SDS011;37732;53.106;7.030;2023-02-01T09:32:02;17.33;;;6.07;;
51654;SDS011;37732;53.106;7.030;2023-02-01T09:34:28;16.83;;;7.00;;
51654;SDS011;37732;53.106;7.030;2023-02-01T09:36:54;19.50;;;7.28;;
51654;SDS011;37732;53.106;7.030;2023-02-01T09:39:19;17.90;;;6.93;;
51654;SDS011;37732;53.106;7.030;2023-02-01T09:41:51;14.32;;;6.65;;
51654;SDS011;37732;53.106;7.030;2023-02-01T09:47:04;19.33;;;7.72;;
51654;SDS011;37732;53.106;7.030;2023-02-01T09:52:34;18.27;;;6.13;;
51654;SDS011;37732;53.106;7.030;2023-02-01T09:55:07;15.90;;;6.30;;
51654;SDS011;37732;53.106;7.030;2023-02-01T09:57:53;19.52;;;7.43;;
51654;SDS011;37732;53.106;7.030;2023-02-01T10:00:50;16.60;;;5.95;;
51654;SDS011;37732;53.106;7.030;2023-02-01T10:03:19;21.27;;;7.00;;
51654;SDS011;37732;53.106;7.030;2023-02-01T10:06:06;20.60;;;7.45;;
51654;SDS011;37732;53.106;7.030;2023-02-01T10:14:19;13.27;;;4.93;;
51654;SDS011;37732;53.106;7.030;2023-02-01T10:16:54;13.70;;;5.50;;
51654;SDS011;37732;53.106;7.030;2023-02-01T10:22:44;17.55;;;6.03;;
51654;SDS011;37732;53.106;7.030;2023-02-01T10:25:26;19.45;;;6.82;;
51654;SDS011;37732;53.106;7.030;2023-02-01T10:28:00;17.10;;;6.05;;
51654;SDS011;37732;53.106;7.030;2023-02-01T10:30:31;17.42;;;5.95;;
51654;SDS011;37732;53.106;7.030;2023-02-01T10:36:01;17.67;;;5.85;;
51654;SDS011;37732;53.106;7.030;2023-02-01T10:38:35;18.02;;;6.03;;
51654;SDS011;37732;53.106;7.030;2023-02-01T10:41:23;14.90;;;6.00;;
51654;SDS011;37732;53.106;7.030;2023-02-01T10:43:49;16.42;;;7.10;;
51654;SDS011;37732;53.106;7.030;2023-02-01T10:46:19;16.70;;;6.20;;
51654;SDS011;37732;53.106;7.030;2023-02-01T10:48:46;18.17;;;6.25;;
51654;SDS011;37732;53.106;7.030;2023-02-01T10:51:14;17.13;;;6.03;;
51654;SDS011;37732;53.106;7.030;2023-02-01T10:56:24;19.65;;;5.53;;
51654;SDS011;37732;53.106;7.030;2023-02-01T10:58:52;14.88;;;5.50;;
51654;SDS011;37732;53.106;7.030;2023-02-01T11:01:37;19.17;;;6.07;;
51654;SDS011;37732;53.106;7.030;2023-02-01T11:04:07;20.65;;;6.10;;
51654;SDS011;37732;53.106;7.030;2023-02-01T11:06:40;15.50;;;5.25;;
51654;SDS011;37732;53.106;7.030;2023-02-01T11:09:18;18.58;;;5.80;;
51654;SDS011;37732;53.106;7.030;2023-02-01T11:16:53;17.55;;;6.38;;
51654;SDS011;37732;53.106;7.030;2023-02-01T11:19:19;13.38;;;5.20;;
51654;SDS011;37732;53.106;7.030;2023-02-01T11:21:48;18.02;;;6.05;;
51654;SDS011;37732;53.106;7.030;2023-02-01T11:24:23;14.32;;;5.20;;
51654;SDS011;37732;53.106;7.030;2023-02-01T11:26:50;18.48;;;5.18;;
51654;SDS011;37732;53.106;7.030;2023-02-01T11:29:19;17.98;;;6.25;;
51654;SDS011;37732;53.106;7.030;2023-02-01T11:31:53;17.25;;;5.85;;
51654;SDS011;37732;53.106;7.030;2023-02-01T11:34:25;15.25;;;5.70;;
51654;SDS011;37732;53.106;7.030;2023-02-01T11:36:57;13.13;;;4.60;;
51654;SDS011;37732;53.106;7.030;2023-02-01T11:39:29;18.13;;;6.20;;
51654;SDS011;37732;53.106;7.030;2023-02-01T11:44:33;15.95;;;4.53;;
51654;SDS011;37732;53.106;7.030;2023-02-01T11:47:16;11.68;;;4.13;;
51654;SDS011;37732;53.106;7.030;2023-02-01T11:49:46;2.80;;;1.10;;
51654;SDS011;37732;53.106;7.030;2023-02-01T11:57:29;2.28;;;0.82;;
51654;SDS011;37732;53.106;7.030;2023-02-01T12:02:55;2.13;;;0.85;;
51654;SDS011;37732;53.106;7.030;2023-02-01T12:19:45;3.25;;;1.67;;
51654;SDS011;37732;53.106;7.030;2023-02-01T12:30:23;7.88;;;2.03;;
51654;SDS011;37732;53.106;7.030;2023-02-01T12:33:12;13.43;;;2.22;;
51654;SDS011;37732;53.106;7.030;2023-02-01T12:38:40;7.75;;;2.47;;
51654;SDS011;37732;53.106;7.030;2023-02-01T12:52:39;13.02;;;3.95;;
51654;SDS011;37732;53.106;7.030;2023-02-01T12:57:43;15.05;;;5.72;;
51654;SDS011;37732;53.106;7.030;2023-02-01T13:02:55;19.88;;;6.07;;
51654;SDS011;37732;53.106;7.030;2023-02-01T13:05:34;19.95;;;5.75;;
51654;SDS011;37732;53.106;7.030;2023-02-01T13:08:23;23.98;;;7.10;;
51654;SDS011;37732;53.106;7.030;2023-02-01T13:10:56;22.50;;;7.78;;
51654;SDS011;37732;53.106;7.030;2023-02-01T13:16:15;21.60;;;7.30;;
51654;SDS011;37732;53.106;7.030;2023-02-01T13:19:03;24.48;;;8.27;;
51654;SDS011;37732;53.106;7.030;2023-02-01T13:22:15;24.33;;;6.32;;
51654;SDS011;37732;53.106;7.030;2023-02-01T13:24:51;20.08;;;6.97;;
51654;SDS011;37732;53.106;7.030;2023-02-01T13:27:22;20.83;;;6.50;;
51654;SDS011;37732;53.106;7.030;2023-02-01T13:29:56;21.60;;;7.38;;
51654;SDS011;37732;53.106;7.030;2023-02-01T13:43:26;25.83;;;7.63;;
51654;SDS011;37732;53.106;7.030;2023-02-01T13:45:55;17.52;;;7.38;;
51654;SDS011;37732;53.106;7.030;2023-02-01T13:48:28;18.52;;;6.55;;
51654;SDS011;37732;53.106;7.030;2023-02-01T13:51:00;22.85;;;7.13;;
51654;SDS011;37732;53.106;7.030;2023-02-01T13:53:33;20.77;;;6.70;;
51654;SDS011;37732;53.106;7.030;2023-02-01T13:56:11;19.00;;;6.95;;
51654;SDS011;37732;53.106;7.030;2023-02-01T13:58:42;14.82;;;6.63;;
51654;SDS011;37732;53.106;7.030;2023-02-01T14:11:45;17.48;;;5.55;;
51654;SDS011;37732;53.106;7.030;2023-02-01T14:16:44;14.85;;;5.43;;
51654;SDS011;37732;53.106;7.030;2023-02-01T14:19:35;16.15;;;5.75;;
51654;SDS011;37732;53.106;7.030;2023-02-01T14:24:39;18.40;;;6.20;;
51654;SDS011;37732;53.106;7.030;2023-02-01T14:29:38;24.58;;;7.78;;
51654;SDS011;37732;53.106;7.030;2023-02-01T14:34:53;20.80;;;7.18;;
51654;SDS011;37732;53.106;7.030;2023-02-01T14:37:28;20.45;;;7.85;;
51654;SDS011;37732;53.106;7.030;2023-02-01T14:47:54;16.73;;;6.05;;
51654;SDS011;37732;53.106;7.030;2023-02-01T14:53:11;19.67;;;6.15;;
51654;SDS011;37732;53.106;7.030;2023-02-01T15:01:13;17.25;;;6.30;;
51654;SDS011;37732;53.106;7.030;2023-02-01T15:09:31;16.08;;;6.22;;
51654;SDS011;37732;53.106;7.030;2023-02-01T15:14:25;21.20;;;7.15;;
51654;SDS011;37732;53.106;7.030;2023-02-01T15:16:52;21.80;;;6.70;;
51654;SDS011;37732;53.106;7.030;2023-02-01T15:19:21;18.52;;;6.65;;
51654;SDS011;37732;53.106;7.030;2023-02-01T15:21:52;17.13;;;6.38;;
51654;SDS011;37732;53.106;7.030;2023-02-01T15:26:53;18.83;;;6.40;;
51654;SDS011;37732;53.106;7.030;2023-02-01T15:29:21;21.40;;;6.35;;
51654;SDS011;37732;53.106;7.030;2023-02-01T15:31:51;16.85;;;6.70;;
51654;SDS011;37732;53.106;7.030;2023-02-01T15:34:17;26.63;;;7.65;;
51654;SDS011;37732;53.106;7.030;2023-02-01T15:36:44;20.48;;;6.15;;
51654;SDS011;37732;53.106;7.030;2023-02-01T15:39:12;19.80;;;6.70;;
51654;SDS011;37732;53.106;7.030;2023-02-01T15:41:44;19.63;;;6.40;;
51654;SDS011;37732;53.106;7.030;2023-02-01T15:44:34;24.55;;;7.55;;
51654;SDS011;37732;53.106;7.030;2023-02-01T15:47:27;20.27;;;6.93;;
51654;SDS011;37732;53.106;7.030;2023-02-01T15:49:59;21.33;;;7.38;;
51654;SDS011;37732;53.106;7.030;2023-02-01T15:52:34;23.15;;;7.28;;
51654;SDS011;37732;53.106;7.030;2023-02-01T15:55:08;21.33;;;6.75;;
51654;SDS011;37732;53.106;7.030;2023-02-01T15:57:45;19.08;;;6.60;;
51654;SDS011;37732;53.106;7.030;2023-02-01T16:00:20;19.85;;;7.22;;
51654;SDS011;37732;53.106;7.030;2023-02-01T16:02:54;22.25;;;6.20;;
51654;SDS011;37732;53.106;7.030;2023-02-01T16:05:36;22.33;;;7.32;;
51654;SDS011;37732;53.106;7.030;2023-02-01T16:08:15;22.40;;;6.05;;
51654;SDS011;37732;53.106;7.030;2023-02-01T16:10:46;13.02;;;5.50;;
51654;SDS011;37732;53.106;7.030;2023-02-01T16:13:14;27.55;;;6.57;;
51654;SDS011;37732;53.106;7.030;2023-02-01T16:15:41;14.77;;;6.18;;
51654;SDS011;37732;53.106;7.030;2023-02-01T16:18:08;23.23;;;7.13;;
51654;SDS011;37732;53.106;7.030;2023-02-01T16:20:38;19.55;;;6.85;;
51654;SDS011;37732;53.106;7.030;2023-02-01T16:23:05;21.73;;;6.68;;
51654;SDS011;37732;53.106;7.030;2023-02-01T16:25:33;19.65;;;6.60;;
51654;SDS011;37732;53.106;7.030;2023-02-01T16:28:01;22.65;;;7.30;;
51654;SDS011;37732;53.106;7.030;2023-02-01T16:30:26;19.25;;;5.68;;
51654;SDS011;37732;53.106;7.030;2023-02-01T16:32:52;17.05;;;7.70;;
51654;SDS011;37732;53.106;7.030;2023-02-01T16:37:53;18.10;;;5.80;;
51654;SDS011;37732;53.106;7.030;2023-02-01T16:40:20;22.33;;;7.22;;
51654;SDS011;37732;53.106;7.030;2023-02-01T16:42:50;18.05;;;6.07;;
51654;SDS011;37732;53.106;7.030;2023-02-01T16:45:16;16.58;;;5.75;;
51654;SDS011;37732;53.106;7.030;2023-02-01T16:47:45;17.08;;;6.00;;
51654;SDS011;37732;53.106;7.030;2023-02-01T16:50:20;16.63;;;5.72;;
51654;SDS011;37732;53.106;7.030;2023-02-01T16:52:48;18.90;;;6.90;;
51654;SDS011;37732;53.106;7.030;2023-02-01T16:55:16;20.92;;;6.38;;
51654;SDS011;37732;53.106;7.030;2023-02-01T16:57:44;23.52;;;6.82;;
51654;SDS011;37732;53.106;7.030;2023-02-01T17:00:10;16.88;;;5.75;;
51654;SDS011;37732;53.106;7.030;2023-02-01T17:02:37;15.00;;;5.90;;
51654;SDS011;37732;53.106;7.030;2023-02-01T17:05:03;16.58;;;6.47;;
51654;SDS011;37732;53.106;7.030;2023-02-01T17:07:30;19.83;;;5.90;;
51654;SDS011;37732;53.106;7.030;2023-02-01T17:09:55;20.25;;;5.55;;
51654;SDS011;37732;53.106;7.030;2023-02-01T17:12:25;15.07;;;5.45;;
51654;SDS011;37732;53.106;7.030;2023-02-01T17:14:57;16.13;;;5.95;;
51654;SDS011;37732;53.106;7.030;2023-02-01T17:17:25;26.30;;;7.38;;
51654;SDS011;37732;53.106;7.030;2023-02-01T17:19:58;26.90;;;6.90;;
51654;SDS011;37732;53.106;7.030;2023-02-01T17:22:24;19.55;;;6.35;;
51654;SDS011;37732;53.106;7.030;2023-02-01T17:24:50;19.50;;;6.40;;
51654;SDS011;37732;53.106;7.030;2023-02-01T17:27:16;18.40;;;7.10;;
51654;SDS011;37732;53.106;7.030;2023-02-01T17:29:42;16.48;;;5.50;;
51654;SDS011;37732;53.106;7.030;2023-02-01T17:32:18;17.15;;;6.00;;
51654;SDS011;37732;53.106;7.030;2023-02-01T17:34:47;16.50;;;6.10;;
51654;SDS011;37732;53.106;7.030;2023-02-01T17:37:18;16.35;;;6.30;;
51654;SDS011;37732;53.106;7.030;2023-02-01T17:39:52;21.80;;;6.35;;
51654;SDS011;37732;53.106;7.030;2023-02-01T17:42:21;21.20;;;6.45;;
51654;SDS011;37732;53.106;7.030;2023-02-01T17:44:49;17.40;;;5.85;;
51654;SDS011;37732;53.106;7.030;2023-02-01T17:47:16;21.25;;;6.78;;
51654;SDS011;37732;53.106;7.030;2023-02-01T17:49:42;18.58;;;6.18;;
51654;SDS011;37732;53.106;7.030;2023-02-01T17:52:09;22.08;;;8.30;;
51654;SDS011;37732;53.106;7.030;2023-02-01T17:54:40;21.10;;;6.53;;
51654;SDS011;37732;53.106;7.030;2023-02-01T17:57:12;17.75;;;6.28;;
51654;SDS011;37732;53.106;7.030;2023-02-01T17:59:38;17.90;;;6.07;;
51654;SDS011;37732;53.106;7.030;2023-02-01T18:02:11;22.77;;;6.82;;